sensor_id;sensor_type;location;lat;lon;timestamp;pressure;altitude;pressure_sealevel;temperature;humidity
68179;BME280;69812;42.632;23.440;2023-06-14T00:00:32;94810.66;;;15.54;92.60
68179;BME280;69812;42.632;23.440;2023-06-14T00:02:59;94813.72;;;15.57;92.72
68179;BME280;69812;42.632;23.440;2023-06-14T00:05:25;94809.09;;;15.68;91.57
68179;BME280;69812;42.632;23.440;2023-06-14T00:07:56;94819.63;;;15.66;91.76
68179;BME280;69812;42.632;23.440;2023-06-14T00:10:24;94816.69;;;15.69;92.17
68179;BME280;69812;42.632;23.440;2023-06-14T00:13:09;94810.50;;;15.78;92.18
68179;BME280;69812;42.632;23.440;2023-06-14T00:15:35;94790.19;;;15.67;91.44
68179;BME280;69812;42.632;23.440;2023-06-14T00:18:01;94802.81;;;15.70;91.70
68179;BME280;69812;42.632;23.440;2023-06-14T00:20:47;94796.16;;;15.68;92.19
68179;BME280;69812;42.632;23.440;2023-06-14T00:23:12;94790.03;;;15.69;92.30
68179;BME280;69812;42.632;23.440;2023-06-14T00:25:41;94787.28;;;15.70;92.40
68179;BME280;69812;42.632;23.440;2023-06-14T00:28:06;94798.09;;;15.74;92.21
68179;BME280;69812;42.632;23.440;2023-06-14T00:30:31;94789.19;;;15.76;92.76
68179;BME280;69812;42.632;23.440;2023-06-14T00:32:57;94785.28;;;15.80;92.12
68179;BME280;69812;42.632;23.440;2023-06-14T00:35:23;94777.69;;;15.79;91.63
68179;BME280;69812;42.632;23.440;2023-06-14T00:37:52;94797.09;;;15.83;91.47
68179;BME280;69812;42.632;23.440;2023-06-14T00:40:19;94785.00;;;15.75;92.17
68179;BME280;69812;42.632;23.440;2023-06-14T00:42:45;94786.59;;;15.76;92.20
68179;BME280;69812;42.632;23.440;2023-06-14T00:45:10;94787.41;;;15.77;92.66
68179;BME280;69812;42.632;23.440;2023-06-14T00:47:36;94787.06;;;15.80;92.90
68179;BME280;69812;42.632;23.440;2023-06-14T00:50:12;94775.13;;;15.79;93.18
68179;BME280;69812;42.632;23.440;2023-06-14T00:52:39;94775.66;;;15.89;92.87
68179;BME280;69812;42.632;23.440;2023-06-14T00:55:05;94772.34;;;15.80;92.80
68179;BME280;69812;42.632;23.440;2023-06-14T00:57:31;94767.06;;;15.74;92.92
68179;BME280;69812;42.632;23.440;2023-06-14T00:59:57;94771.53;;;15.80;92.56
68179;BME280;69812;42.632;23.440;2023-06-14T01:02:22;94779.41;;;15.87;92.88
68179;BME280;69812;42.632;23.440;2023-06-14T01:04:49;94789.06;;;15.93;92.83
68179;BME280;69812;42.632;23.440;2023-06-14T01:07:27;94783.25;;;15.91;92.69
68179;BME280;69812;42.632;23.440;2023-06-14T01:13:07;94785.84;;;15.91;93.05
68179;BME280;69812;42.632;23.440;2023-06-14T01:15:36;94777.41;;;15.74;93.58
68179;BME280;69812;42.632;23.440;2023-06-14T01:18:03;94778.44;;;15.88;92.65
68179;BME280;69812;42.632;23.440;2023-06-14T01:20:31;94779.06;;;15.90;91.51
68179;BME280;69812;42.632;23.440;2023-06-14T01:22:58;94782.47;;;15.90;91.71
68179;BME280;69812;42.632;23.440;2023-06-14T01:25:23;94775.84;;;15.88;91.98
68179;BME280;69812;42.632;23.440;2023-06-14T01:28:03;94771.19;;;15.83;92.50
68179;BME280;69812;42.632;23.440;2023-06-14T01:30:30;94776.38;;;15.83;92.68
68179;BME280;69812;42.632;23.440;2023-06-14T01:32:58;94782.97;;;15.86;93.31
68179;BME280;69812;42.632;23.440;2023-06-14T01:35:24;94776.66;;;15.88;93.52
68179;BME280;69812;42.632;23.440;2023-06-14T01:37:51;94780.84;;;15.89;93.70
68179;BME280;69812;42.632;23.440;2023-06-14T01:40:24;94774.81;;;15.97;93.05
68179;BME280;69812;42.632;23.440;2023-06-14T01:42:50;94781.56;;;15.98;92.65
68179;BME280;69812;42.632;23.440;2023-06-14T01:45:17;94779.72;;;15.92;92.97
68179;BME280;69812;42.632;23.440;2023-06-14T01:47:43;94768.84;;;15.73;93.13
68179;BME280;69812;42.632;23.440;2023-06-14T01:50:10;94771.91;;;15.77;93.68
68179;BME280;69812;42.632;23.440;2023-06-14T01:52:36;94766.41;;;15.72;93.73
68179;BME280;69812;42.632;23.440;2023-06-14T01:55:02;94763.88;;;15.64;93.90
68179;BME280;69812;42.632;23.440;2023-06-14T01:57:28;94767.16;;;15.57;93.91
68179;BME280;69812;42.632;23.440;2023-06-14T01:59:54;94773.19;;;15.50;93.89
68179;BME280;69812;42.632;23.440;2023-06-14T02:02:23;94770.94;;;15.47;93.58
68179;BME280;69812;42.632;23.440;2023-06-14T02:04:48;94775.56;;;15.28;93.52
68179;BME280;69812;42.632;23.440;2023-06-14T02:07:14;94781.66;;;15.12;94.27
68179;BME280;69812;42.632;23.440;2023-06-14T02:09:40;94787.97;;;15.10;95.31
68179;BME280;69812;42.632;23.440;2023-06-14T02:12:09;94781.69;;;15.04;95.76
68179;BME280;69812;42.632;23.440;2023-06-14T02:14:38;94785.78;;;15.22;95.90
68179;BME280;69812;42.632;23.440;2023-06-14T02:17:03;94800.47;;;15.29;96.22
68179;BME280;69812;42.632;23.440;2023-06-14T02:19:29;94794.06;;;15.17;96.63
68179;BME280;69812;42.632;23.440;2023-06-14T02:21:54;94796.78;;;15.24;96.31
68179;BME280;69812;42.632;23.440;2023-06-14T02:24:19;94795.06;;;15.39;96.21
68179;BME280;69812;42.632;23.440;2023-06-14T02:26:45;94805.00;;;15.50;94.48
68179;BME280;69812;42.632;23.440;2023-06-14T02:29:11;94800.41;;;15.37;95.20
68179;BME280;69812;42.632;23.440;2023-06-14T02:31:43;94805.84;;;15.51;95.44
68179;BME280;69812;42.632;23.440;2023-06-14T02:34:08;94805.00;;;15.50;95.49
68179;BME280;69812;42.632;23.440;2023-06-14T02:36:34;94801.75;;;15.56;95.37
68179;BME280;69812;42.632;23.440;2023-06-14T02:39:00;94803.38;;;15.57;94.76
68179;BME280;69812;42.632;23.440;2023-06-14T02:41:26;94799.16;;;15.56;94.25
68179;BME280;69812;42.632;23.440;2023-06-14T02:43:55;94806.28;;;15.54;94.34
68179;BME280;69812;42.632;23.440;2023-06-14T02:46:21;94794.63;;;15.58;94.16
68179;BME280;69812;42.632;23.440;2023-06-14T02:48:46;94800.25;;;15.62;93.29
68179;BME280;69812;42.632;23.440;2023-06-14T02:51:12;94801.34;;;15.68;92.83
68179;BME280;69812;42.632;23.440;2023-06-14T02:53:37;94810.94;;;15.59;92.76
68179;BME280;69812;42.632;23.440;2023-06-14T02:56:06;94810.03;;;15.52;93.36
68179;BME280;69812;42.632;23.440;2023-06-14T02:58:33;94805.38;;;15.47;93.71
68179;BME280;69812;42.632;23.440;2023-06-14T03:00:59;94805.84;;;15.51;94.14
68179;BME280;69812;42.632;23.440;2023-06-14T03:03:29;94816.94;;;15.59;93.73
68179;BME280;69812;42.632;23.440;2023-06-14T03:05:54;94817.25;;;15.56;93.87
68179;BME280;69812;42.632;23.440;2023-06-14T03:08:20;94821.16;;;15.84;92.37
68179;BME280;69812;42.632;23.440;2023-06-14T03:10:46;94815.53;;;15.80;91.00
68179;BME280;69812;42.632;23.440;2023-06-14T03:13:13;94820.06;;;15.78;91.58
68179;BME280;69812;42.632;23.440;2023-06-14T03:15:38;94818.84;;;15.89;92.10
68179;BME280;69812;42.632;23.440;2023-06-14T03:18:07;94820.59;;;15.96;92.02
68179;BME280;69812;42.632;23.440;2023-06-14T03:20:34;94815.22;;;15.98;91.79
68179;BME280;69812;42.632;23.440;2023-06-14T03:23:01;94822.13;;;16.06;91.41
68179;BME280;69812;42.632;23.440;2023-06-14T03:25:27;94822.97;;;16.21;89.94
68179;BME280;69812;42.632;23.440;2023-06-14T03:27:57;94822.59;;;16.09;89.14
68179;BME280;69812;42.632;23.440;2023-06-14T03:30:22;94816.94;;;16.06;89.12
68179;BME280;69812;42.632;23.440;2023-06-14T03:32:47;94831.72;;;16.20;88.54
68179;BME280;69812;42.632;23.440;2023-06-14T03:35:13;94824.75;;;16.20;88.71
68179;BME280;69812;42.632;23.440;2023-06-14T03:37:45;94832.66;;;16.42;87.15
68179;BME280;69812;42.632;23.440;2023-06-14T03:40:12;94819.03;;;16.25;87.14
68179;BME280;69812;42.632;23.440;2023-06-14T03:42:39;94823.78;;;16.36;87.79
68179;BME280;69812;42.632;23.440;2023-06-14T03:45:05;94825.41;;;16.52;87.71
68179;BME280;69812;42.632;23.440;2023-06-14T03:47:31;94832.16;;;16.76;88.06
68179;BME280;69812;42.632;23.440;2023-06-14T03:50:01;94835.66;;;16.98;87.20
68179;BME280;69812;42.632;23.440;2023-06-14T03:52:27;94834.09;;;17.19;86.25
68179;BME280;69812;42.632;23.440;2023-06-14T03:54:53;94832.66;;;17.31;84.90
68179;BME280;69812;42.632;23.440;2023-06-14T03:57:19;94837.81;;;17.46;83.89
68179;BME280;69812;42.632;23.440;2023-06-14T03:59:47;94832.19;;;17.42;83.20
68179;BME280;69812;42.632;23.440;2023-06-14T04:02:16;94836.66;;;17.49;81.69
68179;BME280;69812;42.632;23.440;2023-06-14T04:04:43;94833.38;;;17.61;81.46
68179;BME280;69812;42.632;23.440;2023-06-14T04:07:15;94841.47;;;17.73;81.25
68179;BME280;69812;42.632;23.440;2023-06-14T04:09:44;94829.91;;;17.76;81.04
68179;BME280;69812;42.632;23.440;2023-06-14T04:12:10;94837.91;;;17.74;81.54
68179;BME280;69812;42.632;23.440;2023-06-14T04:14:57;94844.78;;;17.82;80.83
68179;BME280;69812;42.632;23.440;2023-06-14T04:17:22;94850.44;;;17.85;79.95
68179;BME280;69812;42.632;23.440;2023-06-14T04:19:48;94846.44;;;17.68;79.55
68179;BME280;69812;42.632;23.440;2023-06-14T04:22:16;94840.47;;;17.53;80.00
68179;BME280;69812;42.632;23.440;2023-06-14T04:24:44;94847.59;;;17.65;80.57
68179;BME280;69812;42.632;23.440;2023-06-14T04:27:09;94845.84;;;17.88;80.34
68179;BME280;69812;42.632;23.440;2023-06-14T04:29:35;94843.69;;;17.91;79.47
68179;BME280;69812;42.632;23.440;2023-06-14T04:32:01;94840.91;;;18.14;78.60
68179;BME280;69812;42.632;23.440;2023-06-14T04:34:27;94846.59;;;18.53;77.98
68179;BME280;69812;42.632;23.440;2023-06-14T04:36:59;94842.25;;;18.88;74.13
68179;BME280;69812;42.632;23.440;2023-06-14T04:39:26;94842.03;;;19.31;71.96
68179;BME280;69812;42.632;23.440;2023-06-14T04:41:53;94839.94;;;19.61;71.23
68179;BME280;69812;42.632;23.440;2023-06-14T04:44:23;94843.66;;;19.94;70.41
68179;BME280;69812;42.632;23.440;2023-06-14T04:46:56;94844.47;;;20.54;67.97
68179;BME280;69812;42.632;23.440;2023-06-14T04:49:21;94840.34;;;21.18;65.97
68179;BME280;69812;42.632;23.440;2023-06-14T04:51:48;94843.41;;;23.85;58.60
68179;BME280;69812;42.632;23.440;2023-06-14T04:54:22;94852.38;;;26.52;49.00
68179;BME280;69812;42.632;23.440;2023-06-14T04:56:51;94856.22;;;25.17;50.79
68179;BME280;69812;42.632;23.440;2023-06-14T04:59:16;94851.19;;;23.91;53.90
68179;BME280;69812;42.632;23.440;2023-06-14T05:01:43;94858.88;;;22.57;57.76
68179;BME280;69812;42.632;23.440;2023-06-14T05:04:19;94864.31;;;21.60;61.69
68179;BME280;69812;42.632;23.440;2023-06-14T05:06:46;94858.13;;;20.63;64.43
68179;BME280;69812;42.632;23.440;2023-06-14T05:09:28;94852.50;;;20.46;65.86
68179;BME280;69812;42.632;23.440;2023-06-14T05:11:54;94857.31;;;20.36;66.41
68179;BME280;69812;42.632;23.440;2023-06-14T05:14:19;94861.72;;;20.75;65.09
68179;BME280;69812;42.632;23.440;2023-06-14T05:16:45;94859.22;;;21.13;65.50
68179;BME280;69812;42.632;23.440;2023-06-14T05:19:11;94862.06;;;20.99;65.03
68179;BME280;69812;42.632;23.440;2023-06-14T05:21:36;94863.31;;;20.89;64.69
68179;BME280;69812;42.632;23.440;2023-06-14T05:24:02;94865.09;;;20.96;63.67
68179;BME280;69812;42.632;23.440;2023-06-14T05:26:28;94869.00;;;21.83;61.74
68179;BME280;69812;42.632;23.440;2023-06-14T05:28:56;94873.44;;;21.83;61.17
68179;BME280;69812;42.632;23.440;2023-06-14T05:31:25;94879.31;;;21.13;62.76
68179;BME280;69812;42.632;23.440;2023-06-14T05:33:51;94880.75;;;21.67;62.58
68179;BME280;69812;42.632;23.440;2023-06-14T05:36:16;94877.66;;;25.90;51.81
68179;BME280;69812;42.632;23.440;2023-06-14T05:38:51;94883.28;;;25.30;50.01
68179;BME280;69812;42.632;23.440;2023-06-14T05:41:23;94876.88;;;24.13;53.10
68179;BME280;69812;42.632;23.440;2023-06-14T05:43:49;94882.59;;;23.80;54.27
68179;BME280;69812;42.632;23.440;2023-06-14T05:46:14;94869.41;;;23.86;54.35
68179;BME280;69812;42.632;23.440;2023-06-14T05:48:42;94879.88;;;23.86;55.23
68179;BME280;69812;42.632;23.440;2023-06-14T05:51:07;94883.75;;;23.84;53.73
68179;BME280;69812;42.632;23.440;2023-06-14T05:53:34;94886.72;;;23.69;53.85
68179;BME280;69812;42.632;23.440;2023-06-14T05:56:02;94885.91;;;24.83;51.73
68179;BME280;69812;42.632;23.440;2023-06-14T05:58:27;94889.28;;;26.23;49.59
68179;BME280;69812;42.632;23.440;2023-06-14T06:00:52;94887.94;;;26.37;49.05
68179;BME280;69812;42.632;23.440;2023-06-14T06:03:21;94889.31;;;25.94;49.52
68179;BME280;69812;42.632;23.440;2023-06-14T06:05:47;94886.72;;;27.74;46.08
68179;BME280;69812;42.632;23.440;2023-06-14T06:08:13;94897.16;;;27.63;42.90
68179;BME280;69812;42.632;23.440;2023-06-14T06:10:38;94900.13;;;26.43;46.11
68179;BME280;69812;42.632;23.440;2023-06-14T06:13:04;94883.81;;;26.41;45.59
68179;BME280;69812;42.632;23.440;2023-06-14T06:15:31;94895.50;;;26.34;47.56
68179;BME280;69812;42.632;23.440;2023-06-14T06:17:57;94901.38;;;26.07;48.09
68179;BME280;69812;42.632;23.440;2023-06-14T06:20:23;94885.97;;;27.56;44.86
68179;BME280;69812;42.632;23.440;2023-06-14T06:22:53;94891.41;;;29.71;40.64
68179;BME280;69812;42.632;23.440;2023-06-14T06:25:18;94889.97;;;31.23;36.51
68179;BME280;69812;42.632;23.440;2023-06-14T06:27:44;94894.78;;;30.44;36.47
68179;BME280;69812;42.632;23.440;2023-06-14T06:30:10;94900.50;;;30.00;37.80
68179;BME280;69812;42.632;23.440;2023-06-14T06:32:36;94899.19;;;29.98;37.40
68179;BME280;69812;42.632;23.440;2023-06-14T06:35:01;94902.03;;;32.94;32.66
68179;BME280;69812;42.632;23.440;2023-06-14T06:37:27;94894.94;;;34.81;29.86
68179;BME280;69812;42.632;23.440;2023-06-14T06:39:52;94903.41;;;32.91;32.09
68179;BME280;69812;42.632;23.440;2023-06-14T06:42:17;94905.47;;;32.26;34.99
68179;BME280;69812;42.632;23.440;2023-06-14T06:44:43;94901.16;;;30.89;35.53
68179;BME280;69812;42.632;23.440;2023-06-14T06:47:08;94903.13;;;29.85;37.46
68179;BME280;69812;42.632;23.440;2023-06-14T06:49:35;94903.25;;;31.03;35.55
68179;BME280;69812;42.632;23.440;2023-06-14T06:52:04;94903.41;;;29.31;38.49
68179;BME280;69812;42.632;23.440;2023-06-14T06:54:30;94904.13;;;28.51;40.12
68179;BME280;69812;42.632;23.440;2023-06-14T06:56:56;94893.53;;;28.78;40.57
68179;BME280;69812;42.632;23.440;2023-06-14T06:59:21;94897.84;;;28.57;40.12
68179;BME280;69812;42.632;23.440;2023-06-14T07:01:46;94906.00;;;28.01;42.63
68179;BME280;69812;42.632;23.440;2023-06-14T07:04:12;94904.38;;;27.51;43.52
68179;BME280;69812;42.632;23.440;2023-06-14T07:06:38;94909.56;;;26.11;46.06
68179;BME280;69812;42.632;23.440;2023-06-14T07:09:03;94907.94;;;26.38;46.96
68179;BME280;69812;42.632;23.440;2023-06-14T07:11:30;94905.31;;;26.38;46.78
68179;BME280;69812;42.632;23.440;2023-06-14T07:13:56;94908.09;;;25.62;47.92
68179;BME280;69812;42.632;23.440;2023-06-14T07:16:21;94897.00;;;25.20;50.05
68179;BME280;69812;42.632;23.440;2023-06-14T07:18:47;94899.72;;;25.37;49.97
68179;BME280;69812;42.632;23.440;2023-06-14T07:21:12;94893.69;;;25.01;50.16
68179;BME280;69812;42.632;23.440;2023-06-14T07:23:37;94903.13;;;24.78;49.83
68179;BME280;69812;42.632;23.440;2023-06-14T07:26:03;94892.13;;;24.46;51.05
68179;BME280;69812;42.632;23.440;2023-06-14T07:28:28;94887.31;;;24.31;51.21
68179;BME280;69812;42.632;23.440;2023-06-14T07:30:54;94890.00;;;26.18;47.97
68179;BME280;69812;42.632;23.440;2023-06-14T07:33:19;94893.38;;;34.61;30.81
68179;BME280;69812;42.632;23.440;2023-06-14T07:35:48;94883.69;;;33.51;31.16
68179;BME280;69812;42.632;23.440;2023-06-14T07:38:14;94881.16;;;36.17;27.37
68179;BME280;69812;42.632;23.440;2023-06-14T07:40:39;94890.75;;;38.84;24.74
68179;BME280;69812;42.632;23.440;2023-06-14T07:43:05;94883.03;;;43.97;18.78
68179;BME280;69812;42.632;23.440;2023-06-14T07:45:30;94882.38;;;40.31;21.98
68179;BME280;69812;42.632;23.440;2023-06-14T07:47:56;94897.94;;;34.93;28.09
68179;BME280;69812;42.632;23.440;2023-06-14T07:50:22;94878.44;;;32.87;31.38
68179;BME280;69812;42.632;23.440;2023-06-14T07:52:47;94878.31;;;31.95;34.74
68179;BME280;69812;42.632;23.440;2023-06-14T07:55:14;94886.59;;;30.82;36.03
68179;BME280;69812;42.632;23.440;2023-06-14T07:57:40;94885.19;;;28.59;40.03
68179;BME280;69812;42.632;23.440;2023-06-14T08:00:08;94904.34;;;28.17;41.27
68179;BME280;69812;42.632;23.440;2023-06-14T08:02:35;94893.81;;;28.50;41.19
68179;BME280;69812;42.632;23.440;2023-06-14T08:05:01;94897.19;;;27.47;43.31
68179;BME280;69812;42.632;23.440;2023-06-14T08:07:26;94901.16;;;27.10;43.62
68179;BME280;69812;42.632;23.440;2023-06-14T08:09:59;94896.97;;;26.58;44.67
68179;BME280;69812;42.632;23.440;2023-06-14T08:12:24;94907.31;;;27.16;46.30
68179;BME280;69812;42.632;23.440;2023-06-14T08:14:50;94908.34;;;27.32;43.92
68179;BME280;69812;42.632;23.440;2023-06-14T08:17:15;94910.53;;;27.01;43.34
68179;BME280;69812;42.632;23.440;2023-06-14T08:19:40;94911.53;;;27.34;44.83
68179;BME280;69812;42.632;23.440;2023-06-14T08:22:06;94907.00;;;27.12;43.11
68179;BME280;69812;42.632;23.440;2023-06-14T08:24:31;94914.56;;;28.09;41.41
68179;BME280;69812;42.632;23.440;2023-06-14T08:26:58;94918.78;;;27.65;41.88
68179;BME280;69812;42.632;23.440;2023-06-14T08:29:26;94926.31;;;26.50;45.48
68179;BME280;69812;42.632;23.440;2023-06-14T08:31:54;94927.41;;;26.37;45.31
68179;BME280;69812;42.632;23.440;2023-06-14T08:37:42;94925.31;;;25.82;46.59
68179;BME280;69812;42.632;23.440;2023-06-14T08:40:27;94924.47;;;27.01;45.88
68179;BME280;69812;42.632;23.440;2023-06-14T08:42:54;94913.06;;;26.45;46.73
68179;BME280;69812;42.632;23.440;2023-06-14T08:45:26;94922.63;;;26.51;45.53
68179;BME280;69812;42.632;23.440;2023-06-14T08:48:01;94908.00;;;27.28;42.99
68179;BME280;69812;42.632;23.440;2023-06-14T08:50:49;94903.06;;;27.15;44.77
68179;BME280;69812;42.632;23.440;2023-06-14T08:53:14;94903.78;;;25.56;45.00
68179;BME280;69812;42.632;23.440;2023-06-14T08:55:46;94900.63;;;25.31;47.52
68179;BME280;69812;42.632;23.440;2023-06-14T08:58:13;94906.69;;;25.31;46.14
68179;BME280;69812;42.632;23.440;2023-06-14T09:00:39;94903.94;;;25.26;46.02
68179;BME280;69812;42.632;23.440;2023-06-14T09:03:07;94903.16;;;25.26;46.57
68179;BME280;69812;42.632;23.440;2023-06-14T09:05:38;94905.81;;;26.07;45.48
68179;BME280;69812;42.632;23.440;2023-06-14T09:08:04;94903.38;;;26.79;44.92
68179;BME280;69812;42.632;23.440;2023-06-14T09:10:32;94905.81;;;27.03;42.94
68179;BME280;69812;42.632;23.440;2023-06-14T09:13:02;94906.03;;;25.76;45.45
68179;BME280;69812;42.632;23.440;2023-06-14T09:15:30;94891.88;;;24.90;48.30
68179;BME280;69812;42.632;23.440;2023-06-14T09:17:56;94896.16;;;25.43;47.20
68179;BME280;69812;42.632;23.440;2023-06-14T09:20:24;94895.84;;;25.28;46.46
68179;BME280;69812;42.632;23.440;2023-06-14T09:22:49;94905.25;;;25.64;47.74
68179;BME280;69812;42.632;23.440;2023-06-14T09:25:17;94893.00;;;26.56;45.07
68179;BME280;69812;42.632;23.440;2023-06-14T09:27:43;94889.16;;;27.19;42.50
68179;BME280;69812;42.632;23.440;2023-06-14T09:30:13;94891.56;;;25.50;47.53
68179;BME280;69812;42.632;23.440;2023-06-14T09:32:39;94891.25;;;24.22;48.95
68179;BME280;69812;42.632;23.440;2023-06-14T09:35:08;94880.47;;;24.30;48.78
68179;BME280;69812;42.632;23.440;2023-06-14T09:37:34;94887.63;;;24.53;49.31
68179;BME280;69812;42.632;23.440;2023-06-14T09:40:01;94880.19;;;24.74;47.02
68179;BME280;69812;42.632;23.440;2023-06-14T09:42:30;94885.25;;;25.23;47.95
68179;BME280;69812;42.632;23.440;2023-06-14T09:44:56;94879.66;;;26.00;46.69
68179;BME280;69812;42.632;23.440;2023-06-14T09:47:23;94870.22;;;26.50;45.26
68179;BME280;69812;42.632;23.440;2023-06-14T09:49:50;94859.78;;;26.89;43.48
68179;BME280;69812;42.632;23.440;2023-06-14T09:52:19;94871.25;;;27.60;43.11
68179;BME280;69812;42.632;23.440;2023-06-14T09:54:46;94866.97;;;27.76;40.88
68179;BME280;69812;42.632;23.440;2023-06-14T09:57:13;94878.38;;;26.82;44.41
68179;BME280;69812;42.632;23.440;2023-06-14T09:59:43;94872.69;;;26.22;46.52
68179;BME280;69812;42.632;23.440;2023-06-14T10:02:34;94867.56;;;25.58;47.83
68179;BME280;69812;42.632;23.440;2023-06-14T10:05:09;94869.00;;;26.07;44.06
68179;BME280;69812;42.632;23.440;2023-06-14T10:07:48;94862.69;;;26.70;43.04
68179;BME280;69812;42.632;23.440;2023-06-14T10:10:19;94852.63;;;26.84;42.43
68179;BME280;69812;42.632;23.440;2023-06-14T10:12:45;94859.25;;;27.48;42.00
68179;BME280;69812;42.632;23.440;2023-06-14T10:15:19;94862.06;;;28.39;41.11
68179;BME280;69812;42.632;23.440;2023-06-14T10:20:47;94854.59;;;29.06;37.47
68179;BME280;69812;42.632;23.440;2023-06-14T10:23:17;94848.38;;;28.80;38.28
68179;BME280;69812;42.632;23.440;2023-06-14T10:25:44;94845.47;;;28.76;37.80
68179;BME280;69812;42.632;23.440;2023-06-14T10:28:19;94843.72;;;28.55;38.50
68179;BME280;69812;42.632;23.440;2023-06-14T10:33:49;94834.81;;;28.01;39.86
68179;BME280;69812;42.632;23.440;2023-06-14T10:36:24;94841.16;;;27.78;40.75
68179;BME280;69812;42.632;23.440;2023-06-14T10:39:09;94834.22;;;26.67;42.81
68179;BME280;69812;42.632;23.440;2023-06-14T10:41:39;94841.47;;;26.60;43.65
68179;BME280;69812;42.632;23.440;2023-06-14T10:46:40;94838.72;;;25.47;45.90
68179;BME280;69812;42.632;23.440;2023-06-14T10:49:06;94838.84;;;25.28;45.80
68179;BME280;69812;42.632;23.440;2023-06-14T10:51:39;94810.13;;;25.10;45.95
68179;BME280;69812;42.632;23.440;2023-06-14T10:54:15;94819.53;;;25.46;45.44
68179;BME280;69812;42.632;23.440;2023-06-14T10:56:52;94814.88;;;25.13;47.97
68179;BME280;69812;42.632;23.440;2023-06-14T10:59:18;94816.09;;;24.82;47.89
68179;BME280;69812;42.632;23.440;2023-06-14T11:02:27;94818.66;;;25.17;45.81
68179;BME280;69812;42.632;23.440;2023-06-14T11:05:03;94819.63;;;25.51;45.60
68179;BME280;69812;42.632;23.440;2023-06-14T11:12:47;94811.00;;;25.96;43.74
68179;BME280;69812;42.632;23.440;2023-06-14T11:15:13;94800.78;;;26.00;44.08
68179;BME280;69812;42.632;23.440;2023-06-14T11:17:53;94790.75;;;26.64;43.55
68179;BME280;69812;42.632;23.440;2023-06-14T11:20:19;94793.88;;;26.44;45.15
68179;BME280;69812;42.632;23.440;2023-06-14T11:22:45;94793.97;;;26.89;44.69
68179;BME280;69812;42.632;23.440;2023-06-14T11:25:14;94791.66;;;27.14;43.19
68179;BME280;69812;42.632;23.440;2023-06-14T11:27:42;94792.06;;;27.72;41.88
68179;BME280;69812;42.632;23.440;2023-06-14T11:30:08;94793.59;;;27.95;41.51
68179;BME280;69812;42.632;23.440;2023-06-14T11:32:37;94788.84;;;27.92;39.97
68179;BME280;69812;42.632;23.440;2023-06-14T11:35:06;94791.97;;;25.77;44.29
68179;BME280;69812;42.632;23.440;2023-06-14T11:37:32;94798.88;;;25.38;45.58
68179;BME280;69812;42.632;23.440;2023-06-14T11:40:06;94791.56;;;25.40;45.81
68179;BME280;69812;42.632;23.440;2023-06-14T11:42:43;94782.56;;;25.24;46.26
68179;BME280;69812;42.632;23.440;2023-06-14T11:45:12;94787.44;;;24.92;47.21
68179;BME280;69812;42.632;23.440;2023-06-14T11:47:39;94777.66;;;24.64;47.96
68179;BME280;69812;42.632;23.440;2023-06-14T11:50:24;94765.13;;;24.54;47.65
68179;BME280;69812;42.632;23.440;2023-06-14T11:52:57;94779.63;;;25.09;46.91
68179;BME280;69812;42.632;23.440;2023-06-14T11:55:23;94776.59;;;25.86;46.29
68179;BME280;69812;42.632;23.440;2023-06-14T11:57:49;94763.03;;;26.23;42.72
68179;BME280;69812;42.632;23.440;2023-06-14T12:00:28;94749.47;;;26.48;43.23
68179;BME280;69812;42.632;23.440;2023-06-14T12:02:55;94745.47;;;26.84;41.59
68179;BME280;69812;42.632;23.440;2023-06-14T12:05:35;94735.25;;;26.49;42.61
68179;BME280;69812;42.632;23.440;2023-06-14T12:08:03;94738.63;;;25.77;44.12
68179;BME280;69812;42.632;23.440;2023-06-14T12:10:39;94735.09;;;25.71;41.55
68179;BME280;69812;42.632;23.440;2023-06-14T12:13:05;94741.34;;;25.99;42.62
68179;BME280;69812;42.632;23.440;2023-06-14T12:15:34;94733.44;;;25.82;41.15
68179;BME280;69812;42.632;23.440;2023-06-14T12:17:59;94729.44;;;25.62;41.38
68179;BME280;69812;42.632;23.440;2023-06-14T12:20:29;94740.19;;;25.78;41.42
68179;BME280;69812;42.632;23.440;2023-06-14T12:22:58;94731.91;;;25.86;43.06
68179;BME280;69812;42.632;23.440;2023-06-14T12:25:29;94736.84;;;25.66;42.55
68179;BME280;69812;42.632;23.440;2023-06-14T12:28:07;94734.91;;;25.61;42.86
68179;BME280;69812;42.632;23.440;2023-06-14T12:30:33;94722.41;;;25.97;43.28
68179;BME280;69812;42.632;23.440;2023-06-14T12:33:14;94717.44;;;26.95;40.14
68179;BME280;69812;42.632;23.440;2023-06-14T12:35:40;94720.22;;;27.60;38.67
68179;BME280;69812;42.632;23.440;2023-06-14T12:38:05;94715.78;;;27.93;37.55
68179;BME280;69812;42.632;23.440;2023-06-14T12:40:30;94722.69;;;26.95;39.41
68179;BME280;69812;42.632;23.440;2023-06-14T12:43:15;94715.50;;;26.47;42.45
68179;BME280;69812;42.632;23.440;2023-06-14T12:45:56;94712.41;;;26.72;41.29
68179;BME280;69812;42.632;23.440;2023-06-14T12:48:21;94715.66;;;26.57;43.12
68179;BME280;69812;42.632;23.440;2023-06-14T12:50:49;94711.47;;;26.22;44.06
68179;BME280;69812;42.632;23.440;2023-06-14T12:53:15;94717.22;;;25.56;47.65
68179;BME280;69812;42.632;23.440;2023-06-14T12:55:40;94714.66;;;25.16;53.40
68179;BME280;69812;42.632;23.440;2023-06-14T12:58:15;94716.97;;;24.48;57.07
68179;BME280;69812;42.632;23.440;2023-06-14T13:00:42;94713.25;;;23.67;62.08
68179;BME280;69812;42.632;23.440;2023-06-14T13:03:10;94718.94;;;22.85;65.21
68179;BME280;69812;42.632;23.440;2023-06-14T13:05:35;94717.50;;;22.70;65.85
68179;BME280;69812;42.632;23.440;2023-06-14T13:08:02;94731.25;;;22.84;65.87
68179;BME280;69812;42.632;23.440;2023-06-14T13:10:27;94711.78;;;22.43;66.43
68179;BME280;69812;42.632;23.440;2023-06-14T13:12:53;94735.38;;;22.55;67.59
68179;BME280;69812;42.632;23.440;2023-06-14T13:15:33;94721.41;;;22.24;67.37